createdAt,value
2018-04-18T00:00:23.771Z,14.80
2018-04-18T00:02:51.213Z,14.80
2018-04-18T00:05:18.722Z,14.80
2018-04-18T00:07:46.149Z,14.80
2018-04-18T00:10:13.582Z,14.80
2018-04-18T00:12:41.089Z,14.80
2018-04-18T00:15:08.505Z,14.70
2018-04-18T00:17:35.947Z,14.70
2018-04-18T00:20:03.381Z,14.70
2018-04-18T00:22:30.914Z,14.70
2018-04-18T00:24:58.344Z,14.60
2018-04-18T00:27:25.774Z,14.60
2018-04-18T00:29:53.203Z,14.50
2018-04-18T00:32:20.741Z,14.50
2018-04-18T00:34:48.165Z,14.50
2018-04-18T00:37:15.686Z,14.50
2018-04-18T00:39:43.106Z,14.40
2018-04-18T00:42:10.541Z,14.40
2018-04-18T00:44:37.986Z,14.40
2018-04-18T00:47:05.478Z,14.40
2018-04-18T00:49:32.906Z,14.30
2018-04-18T00:52:00.328Z,14.40
2018-04-18T00:54:27.865Z,14.30
2018-04-18T00:56:55.470Z,14.30
2018-04-18T00:59:23.996Z,14.20
2018-04-18T01:01:51.441Z,14.20
2018-04-18T01:04:18.875Z,14.20
2018-04-18T01:06:46.292Z,14.10
2018-04-18T01:09:13.729Z,14.10
2018-04-18T01:11:41.166Z,14.10
2018-04-18T01:14:08.726Z,14.00
2018-04-18T01:16:36.369Z,14.00
2018-04-18T01:19:03.904Z,13.90
2018-04-18T01:21:31.339Z,13.90
2018-04-18T01:23:58.769Z,13.90
2018-04-18T01:26:26.217Z,13.80
2018-04-18T01:28:53.765Z,13.80
2018-04-18T01:31:21.198Z,13.90
2018-04-18T01:33:48.627Z,13.80
2018-04-18T01:36:16.067Z,13.80
2018-04-18T01:38:43.497Z,13.80
2018-04-18T01:41:10.942Z,13.70
2018-04-18T01:43:38.412Z,13.70
2018-04-18T01:46:05.962Z,13.70
2018-04-18T01:48:33.377Z,13.70
2018-04-18T01:51:00.905Z,13.80
2018-04-18T01:53:28.642Z,13.80
2018-04-18T01:55:56.094Z,13.80
2018-04-18T01:58:23.550Z,13.80
2018-04-18T02:00:50.976Z,13.80
2018-04-18T02:03:18.430Z,13.90
2018-04-18T02:05:45.850Z,13.80
2018-04-18T02:08:13.286Z,13.70
2018-04-18T02:10:40.720Z,13.60
2018-04-18T02:13:08.294Z,13.60
2018-04-18T02:15:35.745Z,13.50
2018-04-18T02:18:03.503Z,13.50
2018-04-18T02:20:30.934Z,13.40
2018-04-18T02:22:58.366Z,13.40
2018-04-18T02:25:25.877Z,13.50
2018-04-18T02:27:53.541Z,13.60
2018-04-18T02:30:21.096Z,13.60
2018-04-18T02:32:48.730Z,13.50
2018-04-18T02:35:16.237Z,13.50
2018-04-18T02:37:43.812Z,13.60
2018-04-18T02:40:11.536Z,13.60
2018-04-18T02:42:39.171Z,13.50
2018-04-18T02:45:06.675Z,13.40
2018-04-18T02:47:34.117Z,13.30
2018-04-18T02:50:01.596Z,13.30
2018-04-18T02:52:29.054Z,13.20
2018-04-18T02:54:56.502Z,13.10
2018-04-18T02:57:23.984Z,13.10
2018-04-18T02:59:51.418Z,13.10
2018-04-18T03:02:18.953Z,13.10
2018-04-18T03:04:46.429Z,13.10
2018-04-18T03:07:14.160Z,13.10
2018-04-18T03:09:41.589Z,13.00
2018-04-18T03:12:09.024Z,13.00
2018-04-18T03:14:36.446Z,12.90
2018-04-18T03:17:03.889Z,12.90
2018-04-18T03:19:31.443Z,12.80
2018-04-18T03:21:58.881Z,12.70
2018-04-18T03:24:26.372Z,12.70
2018-04-18T03:26:53.822Z,12.70
2018-04-18T03:29:21.267Z,12.60
2018-04-18T03:31:48.695Z,12.50
2018-04-18T03:34:16.188Z,12.40
2018-04-18T03:36:43.950Z,12.40
2018-04-18T03:39:11.695Z,12.30
2018-04-18T03:41:39.113Z,12.30
2018-04-18T03:44:06.559Z,12.20
2018-04-18T03:46:34.086Z,12.20
2018-04-18T03:49:01.555Z,12.10
2018-04-18T03:51:28.978Z,12.10
2018-04-18T03:53:56.454Z,12.10
2018-04-18T03:56:23.930Z,12.00
2018-04-18T03:58:52.183Z,12.10
2018-04-18T04:01:19.616Z,12.00
2018-04-18T04:03:47.106Z,12.00
2018-04-18T04:06:14.662Z,11.90
2018-04-18T04:08:42.109Z,11.90
2018-04-18T04:11:09.546Z,11.90
2018-04-18T04:13:37.086Z,11.90
2018-04-18T04:16:04.506Z,11.90
2018-04-18T04:18:43.809Z,11.80
2018-04-18T04:21:23.049Z,11.80
2018-04-18T04:24:02.350Z,11.80
2018-04-18T04:26:29.941Z,11.80
2018-04-18T04:28:57.406Z,11.70
2018-04-18T04:31:25.037Z,11.70
2018-04-18T04:33:52.539Z,11.70
2018-04-18T04:36:19.998Z,11.70
2018-04-18T04:38:47.439Z,11.60
2018-04-18T04:41:14.986Z,11.60
2018-04-18T04:43:42.756Z,11.60
2018-04-18T04:46:10.215Z,11.50
2018-04-18T04:48:37.844Z,11.60
2018-04-18T04:51:05.347Z,11.50
2018-04-18T04:53:32.786Z,11.50
2018-04-18T04:56:00.228Z,11.40
2018-04-18T04:58:27.702Z,11.40
2018-04-18T05:00:55.171Z,11.40
2018-04-18T05:03:22.718Z,11.40
2018-04-18T05:05:50.266Z,11.40
2018-04-18T05:08:17.916Z,11.50
2018-04-18T05:10:45.334Z,11.50
2018-04-18T05:13:12.765Z,11.50
2018-04-18T05:15:40.198Z,11.50
2018-04-18T05:18:07.697Z,11.70
2018-04-18T05:20:35.126Z,11.80
2018-04-18T05:23:02.562Z,11.80
2018-04-18T05:25:30.022Z,11.80
2018-04-18T05:27:57.491Z,11.80
2018-04-18T05:30:24.930Z,11.80
2018-04-18T05:32:52.401Z,11.90
2018-04-18T05:35:19.842Z,12.00
2018-04-18T05:37:47.330Z,12.00
2018-04-18T05:40:14.765Z,12.10
2018-04-18T05:42:42.210Z,12.10
2018-04-18T05:45:09.772Z,12.10
2018-04-18T05:47:37.146Z,12.20
2018-04-18T05:50:04.590Z,12.30
2018-04-18T05:52:32.038Z,12.40
2018-04-18T05:54:59.595Z,12.40
2018-04-18T05:57:27.046Z,12.40
2018-04-18T05:59:54.479Z,12.40
2018-04-18T06:02:21.908Z,12.50
2018-04-18T06:04:49.415Z,12.60
2018-04-18T06:07:16.878Z,12.60
2018-04-18T06:09:44.381Z,12.70
2018-04-18T06:12:12.090Z,12.70
2018-04-18T06:14:39.857Z,12.80
2018-04-18T06:17:07.620Z,12.80
2018-04-18T06:19:35.058Z,12.90
2018-04-18T06:22:02.537Z,13.00
2018-04-18T06:24:30.298Z,13.10
2018-04-18T06:26:58.066Z,13.10
2018-04-18T06:29:25.819Z,13.20
2018-04-18T06:31:53.277Z,13.20
2018-04-18T06:34:20.714Z,13.30
2018-04-18T06:36:48.194Z,13.40
2018-04-18T06:39:15.953Z,13.40
2018-04-18T06:41:43.405Z,13.50
2018-04-18T06:44:10.824Z,13.60
2018-04-18T06:46:38.319Z,13.70
2018-04-18T06:49:05.783Z,13.70
2018-04-18T06:51:33.222Z,13.80
2018-04-18T06:54:00.696Z,13.90
2018-04-18T06:56:28.140Z,13.90
2018-04-18T06:58:55.606Z,14.00
2018-04-18T07:01:23.041Z,14.10
2018-04-18T07:03:50.523Z,14.10
2018-04-18T07:06:17.994Z,14.20
2018-04-18T07:08:45.614Z,14.30
2018-04-18T07:11:13.129Z,14.30
2018-04-18T07:13:40.595Z,14.40
2018-04-18T07:16:08.029Z,14.50
2018-04-18T07:18:35.562Z,14.70
2018-04-18T07:21:02.991Z,14.70
2018-04-18T07:23:30.434Z,14.80
2018-04-18T07:25:57.925Z,14.90
2018-04-18T07:28:25.358Z,15.00
2018-04-18T07:30:52.791Z,15.10
2018-04-18T07:33:20.301Z,15.20
2018-04-18T07:35:47.731Z,15.30
2018-04-18T07:38:15.210Z,15.40
2018-04-18T07:40:42.642Z,15.50
2018-04-18T07:43:10.123Z,15.60
2018-04-18T07:45:37.584Z,15.60
2018-04-18T07:48:05.087Z,15.70
2018-04-18T07:50:33.413Z,15.80
2018-04-18T07:53:00.855Z,15.80
2018-04-18T07:55:28.329Z,15.90
2018-04-18T07:57:55.778Z,16.00
2018-04-18T08:00:23.211Z,16.10
2018-04-18T08:02:50.694Z,16.20
2018-04-18T08:05:18.136Z,16.30
2018-04-18T08:07:45.611Z,16.40
2018-04-18T08:10:13.066Z,16.60
2018-04-18T08:12:40.502Z,16.60
2018-04-18T08:15:07.945Z,16.70
2018-04-18T08:17:35.425Z,16.80
2018-04-18T08:20:02.860Z,16.90
2018-04-18T08:22:30.290Z,16.90
2018-04-18T08:24:57.730Z,17.10
2018-04-18T08:27:25.153Z,17.20
2018-04-18T08:29:53.642Z,17.40
2018-04-18T08:32:21.266Z,17.40
2018-04-18T08:34:48.863Z,17.40
2018-04-18T08:37:16.292Z,17.50
2018-04-18T08:39:43.729Z,17.60
2018-04-18T08:42:11.221Z,17.80
2018-04-18T08:44:38.659Z,17.80
2018-04-18T08:47:06.135Z,17.90
2018-04-18T08:49:33.575Z,18.10
2018-04-18T08:52:01.940Z,18.20
2018-04-18T08:54:29.468Z,18.30
2018-04-18T08:56:57.535Z,18.40
2018-04-18T08:59:24.944Z,18.50
2018-04-18T09:01:52.413Z,18.60
2018-04-18T09:04:20.046Z,18.70
2018-04-18T09:06:47.633Z,18.90
2018-04-18T09:09:15.083Z,19.00
2018-04-18T09:11:42.549Z,19.20
2018-04-18T09:14:09.990Z,19.30
2018-04-18T09:16:37.428Z,19.40
2018-04-18T09:19:04.854Z,19.40
2018-04-18T09:21:32.285Z,19.60
2018-04-18T09:23:59.715Z,19.70
2018-04-18T09:26:27.154Z,19.80
2018-04-18T09:28:54.652Z,19.90
2018-04-18T09:31:22.101Z,20.10
2018-04-18T09:33:49.649Z,20.20
2018-04-18T09:36:17.084Z,20.30
2018-04-18T09:38:44.557Z,20.40
2018-04-18T09:41:12.019Z,20.50
2018-04-18T09:43:39.447Z,20.70
2018-04-18T09:46:06.879Z,20.80
2018-04-18T09:48:34.308Z,20.90
2018-04-18T09:51:01.847Z,21.10
2018-04-18T09:53:29.395Z,21.30
2018-04-18T09:55:56.950Z,21.30
2018-04-18T09:58:24.479Z,21.50
2018-04-18T10:00:56.976Z,21.60
2018-04-18T10:03:24.540Z,21.70
2018-04-18T10:05:51.966Z,21.90
2018-04-18T10:08:20.381Z,22.20
2018-04-18T10:10:47.851Z,22.20
2018-04-18T10:13:15.399Z,22.30
2018-04-18T10:15:42.829Z,22.40
2018-04-18T10:18:10.314Z,22.50
2018-04-18T10:20:37.738Z,22.60
2018-04-18T10:23:05.231Z,22.80
2018-04-18T10:25:32.613Z,22.90
2018-04-18T10:28:00.054Z,23.00
2018-04-18T10:30:27.470Z,23.20
2018-04-18T10:32:55.052Z,23.30
2018-04-18T10:35:22.531Z,23.50
2018-04-18T10:37:49.966Z,23.60
2018-04-18T10:40:17.404Z,23.80
2018-04-18T10:42:44.849Z,23.90
2018-04-18T10:45:12.273Z,24.10
2018-04-18T10:47:39.779Z,24.20
2018-04-18T10:50:07.208Z,24.30
2018-04-18T10:52:34.638Z,24.40
2018-04-18T10:55:02.167Z,24.50
2018-04-18T10:57:29.614Z,24.60
2018-04-18T10:59:57.078Z,24.90
2018-04-18T11:02:24.501Z,25.00
2018-04-18T11:04:51.922Z,25.20
2018-04-18T11:07:19.335Z,25.30
2018-04-18T11:09:46.797Z,25.50
2018-04-18T11:12:14.351Z,25.60
2018-04-18T11:14:41.787Z,25.60
2018-04-18T11:17:09.267Z,25.70
2018-04-18T11:19:36.711Z,25.80
2018-04-18T11:22:04.134Z,25.90
2018-04-18T11:24:31.561Z,26.10
2018-04-18T11:26:59.104Z,26.20
2018-04-18T11:29:26.498Z,26.40
2018-04-18T11:31:53.998Z,26.60
2018-04-18T11:34:21.394Z,26.70
2018-04-18T11:36:48.862Z,26.80
2018-04-18T11:39:16.282Z,26.90
2018-04-18T11:41:43.725Z,26.90
2018-04-18T11:44:11.145Z,27.00
2018-04-18T11:46:39.533Z,27.20
2018-04-18T11:49:07.020Z,27.20
2018-04-18T11:51:34.474Z,27.50
2018-04-18T11:54:01.894Z,27.60
2018-04-18T11:56:29.458Z,27.70
2018-04-18T11:58:56.953Z,27.80
2018-04-18T12:01:24.393Z,28.00
2018-04-18T12:03:51.830Z,28.20
2018-04-18T12:06:19.261Z,28.30
2018-04-18T12:08:46.761Z,28.40
2018-04-18T12:11:14.229Z,28.60
2018-04-18T12:13:41.674Z,28.80
2018-04-18T12:16:09.099Z,28.80
2018-04-18T12:18:36.580Z,28.80
2018-04-18T12:21:04.025Z,28.90
2018-04-18T12:23:31.466Z,29.00
2018-04-18T12:25:59.004Z,29.20
2018-04-18T12:28:26.449Z,29.20
2018-04-18T12:30:53.911Z,29.20
2018-04-18T12:33:21.634Z,29.40
2018-04-18T12:35:49.050Z,29.50
2018-04-18T12:38:16.508Z,29.60
2018-04-18T12:40:43.921Z,29.70
2018-04-18T12:43:11.473Z,29.90
2018-04-18T12:45:38.914Z,30.40
2018-04-18T12:48:06.771Z,31.20
2018-04-18T12:50:34.201Z,32.30
2018-04-18T12:53:01.922Z,33.90
2018-04-18T12:55:29.579Z,35.50
2018-04-18T12:57:56.986Z,37.00
2018-04-18T13:00:24.570Z,38.60
2018-04-18T13:02:51.987Z,39.50
2018-04-18T13:05:19.478Z,40.40
2018-04-18T13:07:46.896Z,41.50
2018-04-18T13:10:14.320Z,41.60
2018-04-18T13:12:41.870Z,43.20
2018-04-18T13:15:09.598Z,43.20
2018-04-18T13:17:37.017Z,42.90
2018-04-18T13:20:04.526Z,43.30
2018-04-18T13:22:31.942Z,43.20
2018-04-18T13:24:59.380Z,44.20
2018-04-18T13:27:26.803Z,45.10
2018-04-18T13:29:54.356Z,45.80
2018-04-18T13:32:21.766Z,45.90
2018-04-18T13:34:49.195Z,44.70
2018-04-18T13:37:16.635Z,44.20
2018-04-18T13:39:44.080Z,43.10
2018-04-18T13:42:11.506Z,42.30
2018-04-18T13:44:39.083Z,41.90
2018-04-18T13:47:06.548Z,42.00
2018-04-18T13:49:33.966Z,42.10
2018-04-18T13:52:01.446Z,42.20
2018-04-18T13:54:28.862Z,41.90
2018-04-18T13:56:56.330Z,41.70
2018-04-18T13:59:23.760Z,40.50
2018-04-18T14:01:51.184Z,40.30
2018-04-18T14:04:18.728Z,39.90
2018-04-18T14:06:46.209Z,40.30
2018-04-18T14:09:13.621Z,39.60
2018-04-18T14:11:41.037Z,39.70
2018-04-18T14:14:08.569Z,39.60
2018-04-18T14:16:36.251Z,38.60
2018-04-18T14:19:03.689Z,38.10
2018-04-18T14:21:32.194Z,37.60
2018-04-18T14:23:59.618Z,37.50
2018-04-18T14:26:27.043Z,37.20
2018-04-18T14:28:54.462Z,37.10
2018-04-18T14:31:23.319Z,37.30
2018-04-18T14:33:51.968Z,37.30
2018-04-18T14:36:20.063Z,37.30
2018-04-18T14:38:47.543Z,37.50
2018-04-18T14:41:15.094Z,36.50
2018-04-18T14:43:43.639Z,36.80
2018-04-18T14:46:11.167Z,36.60
2018-04-18T14:48:39.711Z,36.00
2018-04-18T14:51:08.402Z,36.00
2018-04-18T14:53:37.129Z,36.20
2018-04-18T14:56:04.911Z,36.00
2018-04-18T14:58:33.020Z,35.80
2018-04-18T15:01:00.499Z,35.70
2018-04-18T15:03:28.652Z,35.70
2018-04-18T15:05:57.609Z,35.10
2018-04-18T15:08:25.047Z,34.90
2018-04-18T15:10:53.427Z,34.60
2018-04-18T15:13:21.030Z,34.60
2018-04-18T15:15:48.546Z,34.30
2018-04-18T15:18:16.274Z,34.40
2018-04-18T15:20:44.007Z,34.70
2018-04-18T15:23:12.387Z,35.00
2018-04-18T15:25:39.814Z,34.90
2018-04-18T15:28:08.092Z,34.90
2018-04-18T15:30:35.653Z,35.10
2018-04-18T15:33:03.070Z,35.40
2018-04-18T15:35:30.510Z,35.30
2018-04-18T15:37:57.940Z,35.10
2018-04-18T15:40:25.446Z,34.90
2018-04-18T15:42:54.890Z,35.00
2018-04-18T15:45:22.317Z,35.40
2018-04-18T15:47:49.928Z,35.60
2018-04-18T15:50:17.412Z,35.70
2018-04-18T15:52:44.820Z,35.60
2018-04-18T15:55:12.301Z,35.50
2018-04-18T15:57:39.853Z,35.10
2018-04-18T16:00:07.292Z,35.10
2018-04-18T16:02:34.701Z,35.20
2018-04-18T16:05:02.143Z,35.40
2018-04-18T16:07:29.715Z,35.40
2018-04-18T16:09:57.339Z,35.40
2018-04-18T16:12:24.804Z,34.80
2018-04-18T16:14:52.232Z,34.70
2018-04-18T16:17:19.718Z,34.90
2018-04-18T16:19:47.261Z,35.00
2018-04-18T16:22:14.726Z,34.90
2018-04-18T16:24:42.182Z,34.90
2018-04-18T16:27:09.614Z,34.80
2018-04-18T16:29:45.991Z,34.70
2018-04-18T16:32:13.458Z,34.70
2018-04-18T16:34:41.084Z,34.50
2018-04-18T16:37:08.572Z,34.30
2018-04-18T16:39:35.998Z,34.40
2018-04-18T16:42:03.434Z,34.40
2018-04-18T16:44:31.638Z,34.20
2018-04-18T16:46:59.050Z,34.20
2018-04-18T16:49:26.483Z,34.10
2018-04-18T16:51:53.978Z,33.90
2018-04-18T16:54:21.444Z,33.80
2018-04-18T16:56:48.837Z,33.60
2018-04-18T16:59:16.266Z,33.40
2018-04-18T17:01:44.482Z,33.00
2018-04-18T17:04:11.942Z,33.00
2018-04-18T17:06:39.450Z,32.80
2018-04-18T17:09:06.793Z,32.60
2018-04-18T17:11:34.227Z,32.40
2018-04-18T17:14:01.651Z,32.40
2018-04-18T17:16:29.217Z,32.20
2018-04-18T17:18:56.682Z,32.20
2018-04-18T17:21:24.074Z,32.10
2018-04-18T17:23:51.561Z,32.10
2018-04-18T17:26:19.038Z,31.90
2018-04-18T17:28:46.676Z,32.00
2018-04-18T17:31:14.108Z,31.90
2018-04-18T17:33:42.291Z,31.70
2018-04-18T17:36:09.718Z,31.70
2018-04-18T17:38:37.139Z,31.50
2018-04-18T17:41:04.653Z,31.30
2018-04-18T17:43:33.089Z,30.80
2018-04-18T17:46:00.514Z,30.80
2018-04-18T17:48:27.940Z,30.40
2018-04-18T17:50:55.396Z,30.10
2018-04-18T17:53:22.882Z,29.70
2018-04-18T17:55:50.337Z,29.50
2018-04-18T17:58:17.793Z,29.30
2018-04-18T18:00:45.293Z,29.00
2018-04-18T18:03:13.040Z,28.80
2018-04-18T18:05:40.495Z,28.70
2018-04-18T18:08:08.106Z,28.50
2018-04-18T18:10:35.626Z,28.30
2018-04-18T18:13:03.822Z,27.90
2018-04-18T18:15:31.522Z,27.90
2018-04-18T18:17:58.934Z,27.80
2018-04-18T18:20:26.367Z,27.50
2018-04-18T18:22:53.909Z,27.30
2018-04-18T18:25:21.357Z,27.20
2018-04-18T18:27:48.755Z,27.00
2018-04-18T18:30:16.202Z,26.80
2018-04-18T18:32:43.640Z,26.60
2018-04-18T18:35:11.090Z,26.30
2018-04-18T18:37:38.572Z,26.20
2018-04-18T18:40:06.774Z,25.90
2018-04-18T18:42:34.380Z,25.90
2018-04-18T18:45:01.818Z,25.70
2018-04-18T18:47:29.301Z,25.60
2018-04-18T18:49:56.839Z,25.40
2018-04-18T18:52:24.289Z,25.10
2018-04-18T18:54:51.986Z,25.00
2018-04-18T18:57:19.442Z,24.90
2018-04-18T18:59:46.846Z,24.80
2018-04-18T19:02:15.074Z,24.60
2018-04-18T19:04:42.545Z,24.60
2018-04-18T19:07:10.134Z,24.50
2018-04-18T19:09:38.670Z,24.40
2018-04-18T19:12:06.311Z,24.30
2018-04-18T19:14:33.730Z,24.30
2018-04-18T19:17:01.265Z,24.10
2018-04-18T19:19:28.677Z,24.00
2018-04-18T19:21:56.099Z,23.90
2018-04-18T19:24:23.681Z,23.90
2018-04-18T19:26:51.118Z,23.90
2018-04-18T19:29:18.563Z,23.70
2018-04-18T19:31:46.040Z,23.70
2018-04-18T19:34:13.465Z,23.60
2018-04-18T19:36:40.901Z,23.40
2018-04-18T19:39:09.247Z,23.30
2018-04-18T19:41:36.689Z,23.30
2018-04-18T19:44:04.250Z,23.30
2018-04-18T19:46:31.714Z,23.30
2018-04-18T19:48:59.154Z,23.20
2018-04-18T19:51:26.571Z,23.10
2018-04-18T19:53:54.073Z,23.00
2018-04-18T19:56:21.494Z,22.90
2018-04-18T19:58:48.991Z,22.90
2018-04-18T20:01:16.398Z,22.80
2018-04-18T20:03:43.812Z,22.80
2018-04-18T20:06:11.253Z,22.70
2018-04-18T20:08:38.695Z,22.70
2018-04-18T20:11:06.230Z,22.70
2018-04-18T20:13:33.631Z,22.60
2018-04-18T20:16:01.185Z,22.60
2018-04-18T20:18:28.610Z,22.40
2018-04-18T20:20:56.097Z,22.40
2018-04-18T20:23:23.570Z,22.30
2018-04-18T20:25:51.749Z,22.30
2018-04-18T20:28:19.264Z,22.10
2018-04-18T20:30:46.753Z,22.10
2018-04-18T20:33:14.342Z,22.00
2018-04-18T20:35:41.765Z,21.90
2018-04-18T20:38:09.233Z,21.90
2018-04-18T20:40:36.629Z,21.80
2018-04-18T20:43:04.117Z,21.80
2018-04-18T20:45:31.574Z,21.70
2018-04-18T20:47:59.030Z,21.60
2018-04-18T20:50:26.492Z,21.50
2018-04-18T20:52:53.918Z,21.40
2018-04-18T20:55:21.406Z,21.40
2018-04-18T20:57:48.831Z,21.30
2018-04-18T21:00:16.237Z,21.30
2018-04-18T21:02:43.689Z,21.20
2018-04-18T21:05:11.104Z,21.20
2018-04-18T21:07:38.551Z,21.10
2018-04-18T21:10:06.054Z,21.00
2018-04-18T21:12:33.473Z,20.90
2018-04-18T21:15:00.914Z,20.80
2018-04-18T21:17:29.094Z,20.70
2018-04-18T21:19:56.508Z,20.70
2018-04-18T21:22:23.928Z,20.70
2018-04-18T21:24:51.372Z,20.60
2018-04-18T21:27:18.826Z,20.50
2018-04-18T21:29:46.414Z,20.40
2018-04-18T21:32:13.822Z,20.50
2018-04-18T21:34:41.254Z,20.40
2018-04-18T21:37:08.682Z,20.30
2018-04-18T21:39:36.166Z,20.30
2018-04-18T21:42:03.582Z,20.10
2018-04-18T21:44:31.050Z,20.10
2018-04-18T21:46:58.595Z,20.00
2018-04-18T21:49:26.062Z,19.90
2018-04-18T21:51:54.031Z,19.80
2018-04-18T21:54:21.591Z,19.80
2018-04-18T21:56:49.215Z,19.70
2018-04-18T21:59:16.704Z,19.70
2018-04-18T22:01:44.133Z,19.70
2018-04-18T22:04:11.562Z,19.60
2018-04-18T22:06:39.753Z,19.50
2018-04-18T22:09:07.171Z,19.50
2018-04-18T22:11:34.614Z,19.50
2018-04-18T22:14:02.048Z,19.40
2018-04-18T22:16:29.482Z,19.40
2018-04-18T22:18:56.922Z,19.40
2018-04-18T22:21:25.126Z,19.30
2018-04-18T22:23:52.543Z,19.30
2018-04-18T22:26:19.968Z,19.20
2018-04-18T22:28:47.382Z,19.10
2018-04-18T22:31:14.809Z,19.00
2018-04-18T22:33:43.003Z,18.90
2018-04-18T22:36:10.439Z,18.90
2018-04-18T22:38:37.857Z,18.80
2018-04-18T22:41:05.278Z,18.70
2018-04-18T22:43:32.726Z,18.70
2018-04-18T22:46:00.312Z,18.80
2018-04-18T22:48:27.737Z,18.80
2018-04-18T22:50:55.155Z,18.60
2018-04-18T22:53:22.584Z,18.50
2018-04-18T22:55:50.050Z,18.50
2018-04-18T22:58:17.498Z,18.40
2018-04-18T23:00:44.949Z,18.40
2018-04-18T23:03:12.415Z,19.50
2018-04-18T23:05:39.834Z,18.20
2018-04-18T23:08:07.346Z,18.10
2018-04-18T23:10:34.779Z,18.20
2018-04-18T23:13:02.209Z,18.20
2018-04-18T23:15:29.725Z,18.10
2018-04-18T23:17:57.137Z,18.00
2018-04-18T23:20:24.633Z,17.90
2018-04-18T23:22:52.062Z,17.80
2018-04-18T23:25:19.524Z,17.70
2018-04-18T23:27:46.970Z,17.70
2018-04-18T23:30:14.524Z,17.50
2018-04-18T23:32:42.710Z,17.40
2018-04-18T23:35:10.174Z,17.40
2018-04-18T23:37:37.603Z,17.40
2018-04-18T23:40:05.313Z,17.30
2018-04-18T23:42:33.034Z,17.40
2018-04-18T23:45:00.485Z,17.40
2018-04-18T23:47:27.910Z,17.40
2018-04-18T23:49:55.326Z,17.30
2018-04-18T23:52:22.753Z,17.20
2018-04-18T23:54:50.213Z,17.00
2018-04-18T23:57:17.678Z,16.80
2018-04-18T23:59:45.157Z,16.70
